Meteo Giornale » Osservazioni meteo Turchia » Diyarbakir
ore: 21:50 - Osservazioni Meteo Diyarbakir
Lat. 37° 53' N Lon. 40° 11' E Alt. 686 metri s.l.m.
26 °C
Sereno
Temp. 24 Ore
20 °C
35 °C
Nord
1.8 Km/h
Dew point 11 °C
Umidità 39 %
Visibilità 10 Km
Il sole sorge alle ore 05:49
Il sole tramonta alle ore 18:49
| Data e Ora | Cielo e Fenomeni | T °C | DP °C | Um. % | Pres. hPa | Vis. km | Vento km/h | |
|---|---|---|---|---|---|---|---|---|
| Oggi h: 21:50 | Sereno | 26 | 11 | 39 | 1011 | 10 | N 1.8 | |
| Oggi h: 21:20 | Sereno | 27 | 10 | 34 | 1011 | 10 | N 0 | |
| Oggi h: 20:50 | Sereno | 28 | 10 | 32 | 1011 | 10 | N 3.7 | |
| Oggi h: 20:20 | Sereno | 29 | 9 | 28 | 1011 | 10 | N 1.8 | |
| Oggi h: 19:50 | Sereno | 29 | 9 | 28 | 1011 | 10 | O 7.4 | |
| Oggi h: 19:20 | Sereno | 30 | 9 | 27 | 1010 | 10 | N 5.5 | |
| Oggi h: 18:50 | Sereno | 31 | 9 | 25 | 1010 | 10 | O/SO 7.4 | |
| Oggi h: 18:20 | Poco Nuvoloso | 33 | 9 | 22 | 1010 | 10 | N 3.7 | |
| Oggi h: 17:50 | Poco Nuvoloso | 33 | 9 | 22 | 1010 | 10 | O/NO 7.4 | |
| Oggi h: 17:20 | Poco Nuvoloso | 34 | 8 | 20 | 1010 | 10 | O/NO 7.4 | |
| Oggi h: 16:50 | Poco Nuvoloso | 34 | 8 | 20 | 1010 | 10 | O/NO 9.3 | |
| Oggi h: 16:20 | Poco Nuvoloso | 34 | 9 | 21 | 1010 | 10 | O 9.3 | |
| Oggi h: 15:50 | Poco Nuvoloso | 35 | 10 | 21 | 1010 | 10 | O 11.1 | |
| Oggi h: 15:20 | Poco Nuvoloso | 35 | 10 | 21 | 1010 | 10 | O 9.3 | |
| Oggi h: 14:50 | Poco Nuvoloso | 34 | 10 | 23 | 1010 | 10 | O/NO 13 | |
| Oggi h: 14:20 | Poco Nuvoloso | 35 | 10 | 21 | 1011 | 10 | O 7.4 | |
| Oggi h: 13:50 | Poco Nuvoloso | 35 | 8 | 19 | 1011 | 10 | O/SO 13 | |
| Oggi h: 13:20 | Poco Nuvoloso | 34 | 9 | 21 | 1011 | 10 | O/SO 7.4 | |
| Oggi h: 12:50 | Poco Nuvoloso | 34 | 11 | 24 | 1011 | 10 | O 9.3 | |
| Oggi h: 12:20 | Poco Nuvoloso | 34 | 10 | 23 | 1011 | 10 | N 5.5 | |
| Oggi h: 11:50 | Poco Nuvoloso | 33 | 10 | 24 | 1012 | 10 | O 7.4 | |
| Oggi h: 11:20 | Poco Nuvoloso | 33 | 11 | 26 | 1012 | 10 | N 5.5 | |
| Oggi h: 10:50 | Poco Nuvoloso | 32 | 11 | 27 | 1012 | 10 | O 9.3 | |
| Oggi h: 10:20 | Poco Nuvoloso | 31 | 11 | 29 | 1012 | 10 | O 9.3 | |
| Oggi h: 09:50 | Poco Nuvoloso | 30 | 11 | 30 | 1012 | 10 | O/NO 9.3 | |
| Oggi h: 09:20 | Sereno | 30 | 11 | 30 | 1012 | 10 | O 9.3 | |
| Oggi h: 08:50 | Sereno | 29 | 11 | 32 | 1012 | 10 | O/NO 9.3 | |
| Oggi h: 08:20 | Sereno | 28 | 11 | 34 | 1012 | 10 | O/NO 11.1 | |
| Oggi h: 07:50 | Sereno | 27 | 11 | 36 | 1012 | 10 | N 1.8 | |
| Oggi h: 07:20 | Sereno | 25 | 11 | 41 | 1012 | 10 | N 0 | |
| Oggi h: 06:50 | Sereno | 21 | 12 | 56 | 1011 | 10 | N 5.5 | |
| Oggi h: 06:20 | Sereno | 20 | 11 | 56 | 1011 | 10 | O/SO 7.4 | |
| Oggi h: 05:50 | Sereno | 20 | 12 | 59 | 1011 | 10 | N 3.7 | |
| Oggi h: 05:20 | Sereno | 20 | 12 | 59 | 1011 | 10 | N 1.8 | |
| Oggi h: 04:50 | Sereno | 20 | 11 | 56 | 1011 | 10 | N 3.7 | |
| Oggi h: 04:20 | Sereno | 20 | 11 | 56 | 1011 | 10 | O/SO 7.4 | |
| Oggi h: 03:50 | Sereno | 20 | 11 | 56 | 1011 | 10 | N 3.7 | |
| Oggi h: 03:20 | Sereno | 20 | 11 | 56 | 1011 | 10 | N 3.7 | |
| Oggi h: 02:50 | Sereno | 22 | 10 | 46 | 1011 | 10 | O/SO 7.4 | |
| Oggi h: 02:20 | Sereno | 21 | 11 | 52 | 1011 | 10 | N 3.7 | |
| Oggi h: 01:50 | Sereno | 23 | 11 | 46 | 1011 | 10 | N 3.7 | |
| Oggi h: 01:20 | Sereno | 22 | 11 | 49 | 1011 | 10 | O/SO 7.4 | |
| Oggi h: 00:50 | Sereno | 22 | 11 | 49 | 1011 | 10 | N 1.8 | |
| Oggi h: 00:20 | Sereno | 22 | 12 | 53 | 1011 | 10 | N 3.7 | |
| Ieri h: 23:50 | Sereno | 24 | 11 | 43 | 1011 | 10 | N 1.8 | |
| Ieri h: 23:20 | Nuvoloso | 24 | 11 | 43 | 1011 | 10 | N 0 | |
| Ieri h: 22:50 | Nuvoloso | 23 | 11 | 46 | 1011 | 10 | N 0 | |



